createdAt,value
2018-12-13T00:02:14.425Z,14.50
2018-12-13T00:04:49.117Z,15.73
2018-12-13T00:07:24.000Z,15.47
2018-12-13T00:09:58.862Z,14.77
2018-12-13T00:12:33.737Z,14.90
2018-12-13T00:15:09.130Z,14.80
2018-12-13T00:17:44.165Z,13.93
2018-12-13T00:20:18.780Z,14.83
2018-12-13T00:22:53.538Z,15.10
2018-12-13T00:25:28.318Z,13.80
2018-12-13T00:28:03.100Z,13.47
2018-12-13T00:30:38.181Z,14.70
2018-12-13T00:33:12.910Z,15.63
2018-12-13T00:35:47.733Z,14.53
2018-12-13T00:38:22.644Z,15.40
2018-12-13T00:40:57.288Z,14.20
2018-12-13T00:43:32.508Z,12.70
2018-12-13T00:46:07.991Z,13.80
2018-12-13T00:48:42.934Z,15.30
2018-12-13T00:51:17.719Z,15.00
2018-12-13T00:53:52.650Z,15.20
2018-12-13T00:56:27.517Z,14.30
2018-12-13T00:59:02.451Z,14.83
2018-12-13T01:01:37.184Z,14.70
2018-12-13T01:04:12.684Z,14.67
2018-12-13T01:06:47.555Z,14.67
2018-12-13T01:09:22.464Z,14.97
2018-12-13T01:11:57.379Z,14.07
2018-12-13T01:14:32.803Z,15.40
2018-12-13T01:17:07.589Z,14.67
2018-12-13T01:19:43.304Z,15.13
2018-12-13T01:22:18.728Z,14.93
2018-12-13T01:24:53.714Z,15.27
2018-12-13T01:27:28.935Z,14.80
2018-12-13T01:30:04.818Z,14.57
2018-12-13T01:32:39.989Z,14.57
2018-12-13T01:35:14.966Z,13.23
2018-12-13T01:37:49.840Z,15.50
2018-12-13T01:40:25.329Z,14.73
2018-12-13T01:43:00.292Z,14.90
2018-12-13T01:45:35.320Z,13.83
2018-12-13T01:48:10.430Z,16.00
2018-12-13T01:50:45.585Z,15.40
2018-12-13T01:53:20.577Z,15.37
2018-12-13T01:55:55.423Z,16.70
2018-12-13T01:58:30.616Z,15.00
2018-12-13T02:01:05.503Z,15.43
2018-12-13T02:03:40.311Z,16.53
2018-12-13T02:06:15.165Z,14.73
2018-12-13T02:08:49.879Z,16.20
2018-12-13T02:11:24.883Z,16.33
2018-12-13T02:13:59.678Z,16.60
2018-12-13T02:16:34.615Z,16.40
2018-12-13T02:19:10.015Z,16.50
2018-12-13T02:21:44.798Z,15.90
2018-12-13T02:24:20.013Z,16.57
2018-12-13T02:26:55.090Z,16.10
2018-12-13T02:29:30.866Z,15.27
2018-12-13T02:32:05.596Z,16.10
2018-12-13T02:34:40.602Z,14.90
2018-12-13T02:37:15.985Z,15.97
2018-12-13T02:39:51.046Z,15.33
2018-12-13T02:42:25.870Z,15.60
2018-12-13T02:45:00.696Z,16.20
2018-12-13T02:47:35.753Z,15.03
2018-12-13T02:50:10.692Z,15.83
2018-12-13T02:52:45.493Z,14.70
2018-12-13T02:55:20.341Z,17.27
2018-12-13T02:57:55.369Z,15.90
2018-12-13T03:00:30.491Z,16.30
2018-12-13T03:03:05.588Z,16.60
2018-12-13T03:05:40.767Z,17.27
2018-12-13T03:08:15.863Z,17.70
2018-12-13T03:10:50.924Z,16.33
2018-12-13T03:13:26.387Z,17.50
2018-12-13T03:16:01.116Z,16.80
2018-12-13T03:18:35.782Z,16.93
2018-12-13T03:21:11.005Z,17.30
2018-12-13T03:23:45.826Z,16.43
2018-12-13T03:26:20.773Z,16.40
2018-12-13T03:28:55.674Z,16.10
2018-12-13T03:31:31.023Z,16.70
2018-12-13T03:34:06.539Z,17.10
2018-12-13T03:36:42.480Z,16.20
2018-12-13T03:39:17.417Z,16.93
2018-12-13T03:41:52.769Z,17.50
2018-12-13T03:44:34.344Z,17.37
2018-12-13T03:47:09.532Z,18.67
2018-12-13T03:49:44.615Z,17.40
2018-12-13T03:52:19.380Z,17.50
2018-12-13T03:54:54.991Z,16.30
2018-12-13T03:57:29.983Z,16.53
2018-12-13T04:00:06.699Z,17.10
2018-12-13T04:02:41.670Z,16.63
2018-12-13T04:05:16.361Z,17.90
2018-12-13T04:07:51.110Z,16.30
2018-12-13T04:10:25.854Z,15.83
2018-12-13T04:13:01.087Z,16.67
2018-12-13T04:15:35.722Z,16.20
2018-12-13T04:18:10.699Z,16.67
2018-12-13T04:20:45.383Z,15.37
2018-12-13T04:23:20.945Z,16.87
2018-12-13T04:25:56.677Z,17.17
2018-12-13T04:28:31.407Z,17.00
2018-12-13T04:31:06.044Z,16.93
2018-12-13T04:33:40.943Z,16.57
2018-12-13T04:36:15.774Z,17.20
2018-12-13T04:38:50.416Z,17.60
2018-12-13T04:41:25.142Z,16.00
2018-12-13T04:43:59.914Z,16.70
2018-12-13T04:46:34.713Z,17.00
2018-12-13T04:49:09.575Z,17.07
2018-12-13T04:51:44.344Z,15.80
2018-12-13T04:54:19.187Z,16.77
2018-12-13T04:56:53.994Z,17.13
2018-12-13T04:59:28.916Z,14.50
2018-12-13T05:02:03.611Z,17.17
2018-12-13T05:04:38.541Z,15.03
2018-12-13T05:07:13.382Z,15.10
2018-12-13T05:09:48.507Z,15.73
2018-12-13T05:12:23.408Z,15.77
2018-12-13T05:14:58.092Z,14.93
2018-12-13T05:17:32.917Z,15.10
2018-12-13T05:20:07.701Z,15.67
2018-12-13T05:22:42.767Z,14.90
2018-12-13T05:25:17.504Z,15.27
2018-12-13T05:27:52.485Z,15.07
2018-12-13T05:30:27.393Z,14.43
2018-12-13T05:33:02.739Z,13.00
2018-12-13T05:35:37.738Z,14.97
2018-12-13T05:38:12.668Z,14.90
2018-12-13T05:40:47.724Z,14.60
2018-12-13T05:43:22.733Z,15.10
2018-12-13T05:45:57.705Z,13.97
2018-12-13T05:48:32.550Z,12.80
2018-12-13T05:51:07.371Z,13.60
2018-12-13T05:53:42.166Z,14.37
2018-12-13T05:56:17.012Z,13.83
2018-12-13T05:58:52.204Z,13.53
2018-12-13T06:01:27.028Z,14.97
2018-12-13T06:04:02.316Z,15.57
2018-12-13T06:06:37.205Z,15.20
2018-12-13T06:09:12.342Z,16.23
2018-12-13T06:11:47.108Z,15.73
2018-12-13T06:14:22.104Z,15.90
2018-12-13T06:16:58.273Z,15.47
2018-12-13T06:19:34.088Z,15.73
2018-12-13T06:22:08.800Z,16.47
2018-12-13T06:24:43.632Z,15.40
2018-12-13T06:27:18.512Z,16.00
2018-12-13T06:29:58.770Z,16.30
2018-12-13T06:32:30.413Z,16.67
2018-12-13T06:35:06.939Z,17.30
2018-12-13T06:37:41.720Z,16.50
2018-12-13T06:40:16.555Z,17.03
2018-12-13T06:42:51.513Z,15.43
2018-12-13T06:45:26.447Z,16.53
2018-12-13T06:48:01.645Z,17.20
2018-12-13T06:50:36.332Z,16.40
2018-12-13T06:53:11.135Z,15.73
2018-12-13T06:55:45.873Z,15.90
2018-12-13T06:58:20.556Z,15.90
2018-12-13T07:00:55.883Z,15.70
2018-12-13T07:03:30.651Z,16.87
2018-12-13T07:06:06.023Z,16.30
2018-12-13T07:08:40.845Z,15.37
2018-12-13T07:11:15.667Z,15.40
2018-12-13T07:13:50.675Z,16.10
2018-12-13T07:16:25.559Z,15.10
2018-12-13T07:19:00.632Z,14.97
2018-12-13T07:21:35.650Z,15.20
2018-12-13T07:24:10.560Z,15.33
2018-12-13T07:26:46.130Z,16.27
2018-12-13T07:29:20.976Z,15.47
2018-12-13T07:31:56.028Z,14.20
2018-12-13T07:34:31.072Z,16.07
2018-12-13T07:37:06.169Z,15.60
2018-12-13T07:39:41.130Z,13.90
2018-12-13T07:42:15.972Z,13.73
2018-12-13T07:44:50.772Z,14.60
2018-12-13T07:47:25.628Z,14.90
2018-12-13T07:50:00.411Z,15.00
2018-12-13T07:52:35.395Z,12.63
2018-12-13T07:55:10.152Z,13.60
2018-12-13T07:57:45.035Z,13.63
2018-12-13T08:00:19.811Z,12.40
2018-12-13T08:02:54.824Z,12.40
2018-12-13T08:05:29.708Z,12.87
2018-12-13T08:08:04.439Z,12.23
2018-12-13T08:10:39.374Z,12.93
2018-12-13T08:13:14.286Z,11.60
2018-12-13T08:15:48.979Z,13.57
2018-12-13T08:18:23.687Z,11.97
2018-12-13T08:20:58.888Z,13.77
2018-12-13T08:23:33.657Z,12.47
2018-12-13T08:26:09.088Z,11.50
2018-12-13T08:28:43.951Z,11.97
2018-12-13T08:31:19.194Z,11.97
2018-12-13T08:33:54.016Z,12.13
2018-12-13T08:36:28.787Z,11.20
2018-12-13T08:39:05.949Z,10.97
2018-12-13T08:41:40.772Z,11.07
2018-12-13T08:44:15.864Z,10.60
2018-12-13T08:46:50.739Z,11.27
2018-12-13T08:49:25.439Z,11.13
2018-12-13T08:52:00.420Z,11.47
2018-12-13T08:54:35.181Z,12.23
2018-12-13T08:57:10.295Z,10.60
2018-12-13T08:59:45.191Z,10.50
2018-12-13T09:02:19.860Z,10.07
2018-12-13T09:04:54.840Z,10.80
2018-12-13T09:07:29.508Z,11.30
2018-12-13T09:10:05.889Z,10.90
2018-12-13T09:12:40.778Z,9.77
2018-12-13T09:15:15.836Z,10.40
2018-12-13T09:17:51.156Z,10.63
2018-12-13T09:20:25.990Z,9.70
2018-12-13T09:23:00.728Z,9.87
2018-12-13T09:25:35.557Z,10.00
2018-12-13T09:28:11.116Z,9.27
2018-12-13T09:30:45.848Z,9.63
2018-12-13T09:33:20.629Z,9.57
2018-12-13T09:35:55.634Z,10.10
2018-12-13T09:38:30.510Z,10.40
2018-12-13T09:41:05.178Z,10.00
2018-12-13T09:43:40.839Z,9.97
2018-12-13T09:46:15.693Z,9.43
2018-12-13T09:48:51.240Z,10.50
2018-12-13T09:51:26.004Z,10.53
2018-12-13T09:54:00.889Z,9.27
2018-12-13T09:56:35.941Z,10.27
2018-12-13T09:59:11.188Z,9.30
2018-12-13T10:01:46.334Z,10.07
2018-12-13T10:04:21.436Z,10.23
2018-12-13T10:06:56.110Z,9.60
2018-12-13T10:09:30.794Z,9.73
2018-12-13T10:12:05.908Z,9.60
2018-12-13T10:14:40.785Z,9.70
2018-12-13T10:17:15.617Z,9.70
2018-12-13T10:19:50.587Z,10.27
2018-12-13T10:22:25.310Z,9.67
2018-12-13T10:25:00.284Z,9.33
2018-12-13T10:27:35.213Z,10.07
2018-12-13T10:30:10.161Z,9.33
2018-12-13T10:32:45.114Z,9.53
2018-12-13T10:35:20.072Z,9.73
2018-12-13T10:37:54.802Z,9.60
2018-12-13T10:40:30.110Z,9.77
2018-12-13T10:43:04.880Z,9.50
2018-12-13T10:45:39.615Z,8.93
2018-12-13T10:48:14.942Z,10.13
2018-12-13T10:50:49.856Z,9.27
2018-12-13T10:53:24.825Z,9.20
2018-12-13T10:55:59.519Z,8.73
2018-12-13T10:58:34.151Z,8.80
2018-12-13T11:01:21.375Z,8.97
2018-12-13T11:03:56.532Z,9.47
2018-12-13T11:06:31.282Z,9.13
2018-12-13T11:09:07.116Z,8.97
2018-12-13T11:11:42.170Z,8.73
2018-12-13T11:14:17.475Z,8.37
2018-12-13T11:16:52.384Z,8.90
2018-12-13T11:19:27.192Z,7.93
2018-12-13T11:22:02.020Z,9.50
2018-12-13T11:24:37.028Z,7.80
2018-12-13T11:27:23.115Z,8.40
2018-12-13T11:30:28.851Z,9.33
2018-12-13T11:33:03.856Z,9.23
2018-12-13T11:35:38.954Z,9.23
2018-12-13T11:38:13.969Z,8.83
2018-12-13T11:40:48.836Z,9.60
2018-12-13T11:43:23.676Z,8.47
2018-12-13T11:45:58.578Z,9.40
2018-12-13T11:48:33.995Z,9.40
2018-12-13T11:51:09.045Z,9.40
2018-12-13T11:53:44.251Z,8.70
2018-12-13T11:56:19.821Z,9.70
2018-12-13T11:58:54.571Z,8.57
2018-12-13T12:01:29.574Z,9.50
2018-12-13T12:04:04.303Z,9.97
2018-12-13T12:06:39.704Z,9.80
2018-12-13T12:09:14.461Z,9.40
2018-12-13T12:11:49.225Z,9.20
2018-12-13T12:14:24.049Z,9.30
2018-12-13T12:16:59.233Z,9.50
2018-12-13T12:19:34.170Z,8.80
2018-12-13T12:22:09.219Z,9.70
2018-12-13T12:24:43.934Z,9.27
2018-12-13T12:27:19.084Z,9.77
2018-12-13T12:29:53.901Z,9.80
2018-12-13T12:32:28.705Z,9.47
2018-12-13T12:35:04.076Z,10.30
2018-12-13T12:37:38.669Z,9.33
2018-12-13T12:40:13.533Z,9.93
2018-12-13T12:42:48.292Z,9.50
2018-12-13T12:45:23.504Z,10.10
2018-12-13T12:47:58.199Z,9.70
2018-12-13T12:50:33.269Z,10.10
2018-12-13T12:53:07.960Z,9.03
2018-12-13T12:55:42.815Z,10.10
2018-12-13T12:58:17.692Z,10.17
2018-12-13T13:00:52.518Z,9.77
2018-12-13T13:03:27.363Z,9.67
2018-12-13T13:06:02.463Z,9.00
2018-12-13T13:08:37.463Z,9.00
2018-12-13T13:11:12.328Z,9.17
2018-12-13T13:13:47.156Z,9.70
2018-12-13T13:16:21.987Z,9.30
2018-12-13T13:18:56.806Z,9.50
2018-12-13T13:21:31.730Z,10.00
2018-12-13T13:24:06.413Z,10.10
2018-12-13T13:26:41.221Z,9.33
2018-12-13T13:29:16.173Z,10.90
2018-12-13T13:31:51.010Z,9.80
2018-12-13T13:34:26.144Z,9.87
2018-12-13T13:37:01.141Z,10.33
2018-12-13T13:39:36.094Z,10.07
2018-12-13T13:42:11.062Z,9.80
2018-12-13T13:44:46.548Z,9.63
2018-12-13T13:47:21.483Z,10.57
2018-12-13T13:49:56.188Z,11.20
2018-12-13T13:52:31.083Z,10.50
2018-12-13T13:55:07.087Z,11.00
2018-12-13T13:57:41.823Z,10.53
2018-12-13T14:00:16.644Z,11.30
2018-12-13T14:02:51.466Z,11.27
2018-12-13T14:05:26.349Z,10.57
2018-12-13T14:08:03.058Z,10.93
2018-12-13T14:10:37.756Z,11.70
2018-12-13T14:13:12.721Z,10.67
2018-12-13T14:15:47.604Z,11.43
2018-12-13T14:18:22.496Z,10.63
2018-12-13T14:20:57.400Z,11.00
2018-12-13T14:23:32.364Z,10.53
2018-12-13T14:26:07.448Z,11.43
2018-12-13T14:28:42.547Z,11.67
2018-12-13T14:31:18.280Z,11.13
2018-12-13T14:33:53.479Z,11.60
2018-12-13T14:36:28.609Z,11.20
2018-12-13T14:39:05.839Z,11.23
2018-12-13T14:41:40.841Z,11.70
2018-12-13T14:44:15.835Z,10.50
2018-12-13T14:46:51.473Z,11.83
2018-12-13T14:49:26.503Z,12.10
2018-12-13T14:52:01.220Z,10.90
2018-12-13T14:54:36.354Z,11.87
2018-12-13T14:57:11.177Z,11.77
2018-12-13T14:59:47.176Z,12.07
2018-12-13T15:02:23.600Z,12.57
2018-12-13T15:04:58.909Z,11.07
2018-12-13T15:07:34.217Z,12.30
2018-12-13T15:10:09.684Z,11.13
2018-12-13T15:12:44.685Z,12.40
2018-12-13T15:15:19.704Z,11.77
2018-12-13T15:17:54.716Z,10.93
2018-12-13T15:20:29.469Z,12.13
2018-12-13T15:23:09.891Z,12.60
2018-12-13T15:25:44.662Z,11.77
2018-12-13T15:28:19.487Z,12.07
2018-12-13T15:30:54.407Z,12.03
2018-12-13T15:33:29.380Z,11.53
2018-12-13T15:36:04.294Z,11.63
2018-12-13T15:38:39.249Z,12.43
2018-12-13T15:41:14.148Z,12.60
2018-12-13T15:43:49.834Z,13.63
2018-12-13T15:46:25.010Z,13.10
2018-12-13T15:48:59.919Z,11.97
2018-12-13T15:51:34.980Z,12.30
2018-12-13T15:54:10.080Z,13.50
2018-12-13T15:56:45.272Z,13.60
2018-12-13T15:59:20.297Z,13.17
2018-12-13T16:01:55.152Z,11.70
2018-12-13T16:04:29.904Z,11.40
2018-12-13T16:07:05.003Z,12.07
2018-12-13T16:09:40.371Z,13.47
2018-12-13T16:12:15.177Z,12.00
2018-12-13T16:14:50.131Z,11.97
2018-12-13T16:17:25.083Z,12.40
2018-12-13T16:19:59.947Z,13.00
2018-12-13T16:22:34.721Z,12.83
2018-12-13T16:25:09.531Z,11.90
2018-12-13T16:27:44.354Z,11.37
2018-12-13T16:30:20.799Z,12.23
2018-12-13T16:32:55.811Z,12.50
2018-12-13T16:35:30.802Z,12.27
2018-12-13T16:38:05.740Z,12.77
2018-12-13T16:40:41.071Z,12.33
2018-12-13T16:43:15.817Z,12.70
2018-12-13T16:45:50.642Z,11.87
2018-12-13T16:48:25.607Z,12.40
2018-12-13T16:51:00.314Z,12.23
2018-12-13T16:53:35.176Z,12.80
2018-12-13T16:56:10.075Z,12.43
2018-12-13T16:58:51.511Z,12.83
2018-12-13T17:01:26.997Z,13.43
2018-12-13T17:04:01.950Z,13.20
2018-12-13T17:06:37.283Z,12.33
2018-12-13T17:09:12.131Z,12.00
2018-12-13T17:11:47.163Z,12.77
2018-12-13T17:14:22.355Z,12.90
2018-12-13T17:16:57.318Z,13.03
2018-12-13T17:19:32.125Z,13.77
2018-12-13T17:22:07.056Z,12.80
2018-12-13T17:24:41.975Z,13.73
2018-12-13T17:27:16.987Z,12.70
2018-12-13T17:29:51.903Z,12.43
2018-12-13T17:32:27.334Z,12.40
2018-12-13T17:35:02.337Z,12.47
2018-12-13T17:37:37.345Z,12.70
2018-12-13T17:40:12.705Z,10.60
2018-12-13T17:42:47.954Z,13.43
2018-12-13T17:45:23.047Z,12.27
2018-12-13T17:47:57.849Z,13.00
2018-12-13T17:50:33.392Z,12.13
2018-12-13T17:53:08.469Z,11.97
2018-12-13T17:55:43.655Z,12.27
2018-12-13T17:58:18.536Z,13.93
2018-12-13T18:00:53.655Z,13.30
2018-12-13T18:03:29.267Z,12.20
2018-12-13T18:06:04.419Z,11.90
2018-12-13T18:08:39.863Z,12.27
2018-12-13T18:11:14.895Z,13.43
2018-12-13T18:13:50.263Z,12.83
2018-12-13T18:16:25.232Z,12.30
2018-12-13T18:19:00.252Z,12.20
2018-12-13T18:21:35.678Z,12.80
2018-12-13T18:24:10.574Z,12.47
2018-12-13T18:26:45.818Z,12.93
2018-12-13T18:29:20.863Z,13.67
2018-12-13T18:31:56.388Z,13.37
2018-12-13T18:34:31.626Z,12.30
2018-12-13T18:37:07.164Z,13.67
2018-12-13T18:39:42.165Z,12.23
2018-12-13T18:42:17.397Z,13.27
2018-12-13T18:44:52.752Z,13.30
2018-12-13T18:47:27.786Z,13.67
2018-12-13T18:50:03.211Z,13.03
2018-12-13T18:52:38.380Z,12.87
2018-12-13T18:55:13.238Z,13.60
2018-12-13T18:57:48.288Z,13.83
2018-12-13T19:00:23.290Z,13.80
2018-12-13T19:02:58.232Z,14.33
2018-12-13T19:05:33.042Z,13.47
2018-12-13T19:08:07.956Z,13.20
2018-12-13T19:10:42.682Z,13.97
2018-12-13T19:13:17.765Z,13.97
2018-12-13T19:15:53.179Z,16.23
2018-12-13T19:18:28.340Z,14.40
2018-12-13T19:21:03.476Z,15.20
2018-12-13T19:23:38.349Z,15.30
2018-12-13T19:26:13.385Z,14.40
2018-12-13T19:28:48.264Z,15.10
2018-12-13T19:31:23.454Z,14.40
2018-12-13T19:33:58.391Z,14.67
2018-12-13T19:36:34.093Z,14.17
2018-12-13T19:39:09.173Z,14.70
2018-12-13T19:41:44.160Z,13.23
2018-12-13T19:44:19.072Z,14.17
2018-12-13T19:46:54.673Z,14.83
2018-12-13T19:49:29.870Z,14.77
2018-12-13T19:52:05.223Z,14.07
2018-12-13T19:54:40.094Z,14.53
2018-12-13T19:57:15.331Z,14.07
2018-12-13T19:59:50.633Z,14.57
2018-12-13T20:02:25.370Z,13.97
2018-12-13T20:05:00.275Z,13.23
2018-12-13T20:07:35.298Z,14.60
2018-12-13T20:10:11.282Z,14.33
2018-12-13T20:12:46.409Z,14.27
2018-12-13T20:15:24.092Z,13.60
2018-12-13T20:17:58.946Z,12.90
2018-12-13T20:20:33.732Z,13.80
2018-12-13T20:23:08.914Z,13.63
2018-12-13T20:25:43.920Z,13.53
2018-12-13T20:28:19.010Z,13.60
2018-12-13T20:30:53.989Z,12.83
2018-12-13T20:33:29.095Z,14.57
2018-12-13T20:36:03.956Z,13.30
2018-12-13T20:38:38.928Z,12.93
2018-12-13T20:41:13.569Z,12.50
2018-12-13T20:43:48.646Z,15.00
2018-12-13T20:46:23.539Z,13.10
2018-12-13T20:48:58.702Z,14.20
2018-12-13T20:51:33.725Z,14.00
2018-12-13T20:54:14.616Z,13.80
2018-12-13T20:56:49.579Z,14.70
2018-12-13T20:59:24.580Z,13.50
2018-12-13T21:02:00.815Z,13.70
2018-12-13T21:04:36.168Z,13.20
2018-12-13T21:07:43.883Z,13.60
2018-12-13T21:10:19.020Z,12.90
2018-12-13T21:12:53.896Z,14.63
2018-12-13T21:15:29.644Z,14.00
2018-12-13T21:18:05.473Z,13.67
2018-12-13T21:20:40.575Z,12.97
2018-12-13T21:23:15.676Z,13.50
2018-12-13T21:25:50.919Z,13.73
2018-12-13T21:28:25.770Z,13.60
2018-12-13T21:31:00.811Z,12.07
2018-12-13T21:33:35.953Z,12.77
2018-12-13T21:36:10.686Z,13.50
2018-12-13T21:38:45.683Z,12.00
2018-12-13T21:41:20.691Z,12.70
2018-12-13T21:43:55.621Z,13.63
2018-12-13T21:46:30.548Z,13.10
2018-12-13T21:49:05.692Z,13.13
2018-12-13T21:51:41.760Z,14.00
2018-12-13T21:54:16.646Z,13.23
2018-12-13T21:56:52.057Z,12.40
2018-12-13T21:59:27.197Z,13.83
2018-12-13T22:02:02.341Z,12.30
2018-12-13T22:04:37.020Z,13.33
2018-12-13T22:07:12.058Z,12.23
2018-12-13T22:09:46.833Z,13.03
2018-12-13T22:12:21.768Z,13.07
2018-12-13T22:15:02.374Z,12.67
2018-12-13T22:17:33.596Z,12.13
2018-12-13T22:20:08.934Z,12.70
2018-12-13T22:22:43.951Z,11.77
2018-12-13T22:25:18.751Z,13.30
2018-12-13T22:27:54.035Z,13.97
2018-12-13T22:30:28.847Z,14.70
2018-12-13T22:33:03.920Z,13.10
2018-12-13T22:35:38.678Z,13.30
2018-12-13T22:38:13.599Z,12.73
2018-12-13T22:40:48.558Z,13.53
2018-12-13T22:43:23.388Z,14.40
2018-12-13T22:46:00.156Z,14.03
2018-12-13T22:48:35.287Z,14.40
2018-12-13T22:51:10.347Z,13.17
2018-12-13T22:53:45.107Z,14.00
2018-12-13T22:56:19.840Z,13.37
2018-12-13T22:58:54.656Z,14.40
2018-12-13T23:01:29.435Z,13.90
2018-12-13T23:04:04.794Z,13.70
2018-12-13T23:06:40.052Z,14.60
2018-12-13T23:09:15.372Z,13.30
2018-12-13T23:11:50.297Z,12.20
2018-12-13T23:14:25.176Z,13.70
2018-12-13T23:17:00.428Z,13.10
2018-12-13T23:19:35.176Z,14.30
2018-12-13T23:22:10.412Z,12.80
2018-12-13T23:24:45.369Z,14.40
2018-12-13T23:27:20.105Z,12.80
2018-12-13T23:29:55.308Z,14.17
2018-12-13T23:32:30.331Z,14.10
2018-12-13T23:35:05.258Z,14.07
2018-12-13T23:37:40.139Z,14.90
2018-12-13T23:40:14.848Z,14.10
2018-12-13T23:42:49.573Z,13.90
2018-12-13T23:45:24.369Z,16.00
2018-12-13T23:47:59.227Z,14.37
2018-12-13T23:50:34.246Z,15.93
2018-12-13T23:53:09.464Z,15.20
2018-12-13T23:55:44.740Z,14.40
2018-12-13T23:58:19.700Z,17.17
